Tropical Cyclones
[Index]
Main Index Home Page Stock Weather Photos Extreme Storms Discussion Storm News and Storm Chasing Reports Tropical Cyclones / Hurricanes / Typhoons Weather Data and Links Wild Fires / Bushfires Weather Observation Techniques Weather Picture Catalogue Tornado Pictures and Reports Stock Video Footage and DVDs for sale
Season 2004-2005 Tropical Cyclone KERRY Track Map
Season 2004-2005 Summaries: [BoM-AU] [JTWC-AU] [JTWC-SIO] [JTWC-SPAC] [JTWC-SH]
<<- Previous TC | BoM 2004-2005 Season | Next TC ->>

click for intensity scale information  Lat/long Grid: Show Hide

 Date Labels: Show Hide

Bureau of Meteorology Tropical Cyclone Data

Name: KERRY
Number: 889 / 200405_10

08 Jan 2005 12:00 UTC to 18 Jan 2005 00:00 UTC

    date/time    lat    long    hPa   cat  kts
2005-01-08 12   18.2   159.8    970    3    65          
2005-01-08 18   18.2   159.5    970    3    65          
2005-01-09 00   18.1   159.4    970    3    65          
2005-01-09 06   18.0   159.1    965    3    70          
2005-01-09 12   18.0   159.2    955    4    80          
2005-01-09 18   18.1   159.1    955    4    80          
2005-01-10 00   18.1   159.1    955    4    80          
2005-01-10 06   18.2   159.0    955    4    80          
2005-01-10 12   18.3   159.0    955    4    80          
2005-01-10 18   18.6   159.0    965    3    70          
2005-01-11 00   19.2   159.1    970    3    65          
2005-01-11 06   19.8   159.3    975    2    60          
2005-01-11 12   20.1   159.9    980    2    55          
2005-01-11 18   20.3   160.1    980    2    55          
2005-01-12 00   20.6   160.2    985    2    50          
2005-01-12 06   21.0   160.3    987    1    45          
2005-01-12 12   21.6   160.5    987    1    45          
2005-01-12 18   22.2   160.3    987    1    45          
2005-01-13 00   22.6   160.0    987    1    45          
2005-01-13 06   23.1   159.9    987    1    45          
2005-01-13 12   23.7   159.4    992    1    40          
2005-01-13 18   24.2   158.9    998         35          
2005-01-14 00   24.6   158.2   1000         35          
2005-01-14 06   25.0   158.2   1002         35          
2005-01-14 12   25.8   158.0   1002         35          
2005-01-14 18   26.3   157.6   1002         35          
2005-01-15 00   26.7   157.0   1002         35          
2005-01-15 06   26.9   156.6   1002         35          
2005-01-15 12   27.1   156.3   1002         35          
2005-01-15 18   27.4   156.1    998         40          
2005-01-16 00   27.8   156.1    998         40          
2005-01-16 06   28.0   156.6   1002         35          
2005-01-16 12   28.1   157.0   1002         35          
2005-01-16 18   28.1   157.4   1002         35          
2005-01-17 00   28.1   157.9   1002         35          
2005-01-17 06   28.0   158.3   1005         30          
2005-01-17 12   27.8   158.2   1006         30          
2005-01-17 18   27.6   158.0   1006         30          
2005-01-18 00   27.5   157.8   1006         30          
Winds are 10-min average.

Tropical cyclone tracks developed by Michael Bath using data from the Bureau of Meteorology and Google Maps.


[Australian Severe Weather index] [Copyright Notice] [Email Contacts] [Search This Site] [Privacy Policy]
Document: tropical_cyclone_kerry.htm Updated: 29 June 2017